sensor_id;sensor_type;location;lat;lon;timestamp;P1;durP1;ratioP1;P2;durP2;ratioP2
81651;SDS011;71061;55.714;37.794;2023-08-21T00:02:21;7.10;;;4.72;;
81651;SDS011;71061;55.714;37.794;2023-08-21T00:04:47;6.90;;;4.40;;
81651;SDS011;71061;55.714;37.794;2023-08-21T00:07:13;8.75;;;5.35;;
81651;SDS011;71061;55.714;37.794;2023-08-21T00:09:39;6.47;;;5.00;;
81651;SDS011;71061;55.714;37.794;2023-08-21T00:12:05;8.25;;;5.10;;
81651;SDS011;71061;55.714;37.794;2023-08-21T00:14:31;8.60;;;5.28;;
81651;SDS011;71061;55.714;37.794;2023-08-21T00:16:57;8.63;;;5.68;;
81651;SDS011;71061;55.714;37.794;2023-08-21T00:19:23;10.65;;;6.00;;
81651;SDS011;71061;55.714;37.794;2023-08-21T00:21:48;8.52;;;5.95;;
81651;SDS011;71061;55.714;37.794;2023-08-21T00:24:14;7.35;;;5.50;;
81651;SDS011;71061;55.714;37.794;2023-08-21T00:26:40;8.27;;;5.93;;
81651;SDS011;71061;55.714;37.794;2023-08-21T00:29:05;7.40;;;5.65;;
81651;SDS011;71061;55.714;37.794;2023-08-21T00:31:31;7.55;;;5.07;;
81651;SDS011;71061;55.714;37.794;2023-08-21T00:33:57;8.05;;;5.30;;
81651;SDS011;71061;55.714;37.794;2023-08-21T00:36:23;10.00;;;6.05;;
81651;SDS011;71061;55.714;37.794;2023-08-21T00:38:49;9.07;;;6.45;;
81651;SDS011;71061;55.714;37.794;2023-08-21T00:41:14;7.28;;;4.88;;
81651;SDS011;71061;55.714;37.794;2023-08-21T00:43:40;8.15;;;5.03;;
81651;SDS011;71061;55.714;37.794;2023-08-21T00:46:06;6.90;;;4.53;;
81651;SDS011;71061;55.714;37.794;2023-08-21T00:48:32;8.57;;;5.30;;
81651;SDS011;71061;55.714;37.794;2023-08-21T00:51:01;7.30;;;5.30;;
81651;SDS011;71061;55.714;37.794;2023-08-21T00:53:27;7.78;;;4.75;;
81651;SDS011;71061;55.714;37.794;2023-08-21T00:55:53;8.73;;;5.20;;
81651;SDS011;71061;55.714;37.794;2023-08-21T00:58:19;6.95;;;5.30;;
81651;SDS011;71061;55.714;37.794;2023-08-21T01:00:45;7.60;;;5.95;;
81651;SDS011;71061;55.714;37.794;2023-08-21T01:03:12;9.07;;;5.55;;
81651;SDS011;71061;55.714;37.794;2023-08-21T01:05:38;8.95;;;5.57;;
81651;SDS011;71061;55.714;37.794;2023-08-21T01:16:34;11.20;;;6.22;;
81651;SDS011;71061;55.714;37.794;2023-08-21T01:19:02;8.80;;;5.45;;
81651;SDS011;71061;55.714;37.794;2023-08-21T01:21:29;8.52;;;6.07;;
81651;SDS011;71061;55.714;37.794;2023-08-21T01:23:55;8.32;;;5.65;;
81651;SDS011;71061;55.714;37.794;2023-08-21T01:26:20;8.73;;;5.65;;
81651;SDS011;71061;55.714;37.794;2023-08-21T01:28:46;12.23;;;6.43;;
81651;SDS011;71061;55.714;37.794;2023-08-21T01:31:14;10.55;;;5.93;;
81651;SDS011;71061;55.714;37.794;2023-08-21T01:33:47;8.90;;;6.18;;
81651;SDS011;71061;55.714;37.794;2023-08-21T01:36:15;11.55;;;5.97;;
81651;SDS011;71061;55.714;37.794;2023-08-21T01:38:41;9.93;;;6.43;;
81651;SDS011;71061;55.714;37.794;2023-08-21T01:41:07;8.55;;;5.15;;
81651;SDS011;71061;55.714;37.794;2023-08-21T01:43:33;11.18;;;6.35;;
81651;SDS011;71061;55.714;37.794;2023-08-21T01:46:00;10.25;;;5.18;;
81651;SDS011;71061;55.714;37.794;2023-08-21T01:48:26;9.50;;;5.40;;
81651;SDS011;71061;55.714;37.794;2023-08-21T01:50:52;8.40;;;5.22;;
81651;SDS011;71061;55.714;37.794;2023-08-21T01:53:18;10.52;;;5.80;;
81651;SDS011;71061;55.714;37.794;2023-08-21T01:55:43;9.75;;;5.28;;
81651;SDS011;71061;55.714;37.794;2023-08-21T01:58:09;10.43;;;5.53;;
81651;SDS011;71061;55.714;37.794;2023-08-21T02:00:35;9.93;;;6.05;;
81651;SDS011;71061;55.714;37.794;2023-08-21T02:03:00;9.48;;;6.60;;
81651;SDS011;71061;55.714;37.794;2023-08-21T02:05:26;9.02;;;6.25;;
81651;SDS011;71061;55.714;37.794;2023-08-21T02:07:52;10.23;;;5.93;;
81651;SDS011;71061;55.714;37.794;2023-08-21T02:10:17;10.85;;;6.63;;
81651;SDS011;71061;55.714;37.794;2023-08-21T02:12:45;10.48;;;6.43;;
81651;SDS011;71061;55.714;37.794;2023-08-21T02:15:11;11.32;;;6.30;;
81651;SDS011;71061;55.714;37.794;2023-08-21T02:17:37;9.45;;;5.35;;
81651;SDS011;71061;55.714;37.794;2023-08-21T02:20:05;10.63;;;6.43;;
81651;SDS011;71061;55.714;37.794;2023-08-21T02:22:31;10.85;;;7.15;;
81651;SDS011;71061;55.714;37.794;2023-08-21T02:24:56;11.35;;;6.82;;
81651;SDS011;71061;55.714;37.794;2023-08-21T02:27:22;10.90;;;6.82;;
81651;SDS011;71061;55.714;37.794;2023-08-21T02:29:48;12.30;;;6.18;;
81651;SDS011;71061;55.714;37.794;2023-08-21T02:32:13;9.50;;;7.25;;
81651;SDS011;71061;55.714;37.794;2023-08-21T02:34:39;10.75;;;6.30;;
81651;SDS011;71061;55.714;37.794;2023-08-21T02:37:05;10.48;;;6.38;;
81651;SDS011;71061;55.714;37.794;2023-08-21T02:39:30;10.80;;;6.95;;
81651;SDS011;71061;55.714;37.794;2023-08-21T02:41:56;10.70;;;5.88;;
81651;SDS011;71061;55.714;37.794;2023-08-21T02:44:22;11.25;;;5.97;;
81651;SDS011;71061;55.714;37.794;2023-08-21T02:46:47;10.00;;;6.00;;
81651;SDS011;71061;55.714;37.794;2023-08-21T02:49:13;9.65;;;6.38;;
81651;SDS011;71061;55.714;37.794;2023-08-21T02:51:39;9.68;;;5.55;;
81651;SDS011;71061;55.714;37.794;2023-08-21T02:54:05;10.65;;;5.75;;
81651;SDS011;71061;55.714;37.794;2023-08-21T02:56:30;11.73;;;6.68;;
81651;SDS011;71061;55.714;37.794;2023-08-21T02:58:56;8.82;;;5.22;;
81651;SDS011;71061;55.714;37.794;2023-08-21T03:01:22;8.23;;;5.38;;
81651;SDS011;71061;55.714;37.794;2023-08-21T03:03:47;7.68;;;4.90;;
81651;SDS011;71061;55.714;37.794;2023-08-21T03:06:14;9.55;;;5.40;;
81651;SDS011;71061;55.714;37.794;2023-08-21T03:08:42;9.68;;;4.85;;
81651;SDS011;71061;55.714;37.794;2023-08-21T03:11:09;8.93;;;4.45;;
81651;SDS011;71061;55.714;37.794;2023-08-21T03:13:35;6.70;;;4.40;;
81651;SDS011;71061;55.714;37.794;2023-08-21T03:16:01;8.55;;;4.57;;
81651;SDS011;71061;55.714;37.794;2023-08-21T03:18:31;8.65;;;5.28;;
81651;SDS011;71061;55.714;37.794;2023-08-21T03:20:57;7.65;;;4.55;;
81651;SDS011;71061;55.714;37.794;2023-08-21T03:23:23;7.97;;;4.38;;
81651;SDS011;71061;55.714;37.794;2023-08-21T03:25:52;7.55;;;4.70;;
81651;SDS011;71061;55.714;37.794;2023-08-21T03:28:18;8.00;;;4.30;;
81651;SDS011;71061;55.714;37.794;2023-08-21T03:30:44;9.98;;;4.22;;
81651;SDS011;71061;55.714;37.794;2023-08-21T03:33:09;9.63;;;4.70;;
81651;SDS011;71061;55.714;37.794;2023-08-21T03:35:37;8.85;;;4.63;;
81651;SDS011;71061;55.714;37.794;2023-08-21T03:38:02;7.53;;;3.83;;
81651;SDS011;71061;55.714;37.794;2023-08-21T03:40:33;7.45;;;4.35;;
81651;SDS011;71061;55.714;37.794;2023-08-21T03:42:59;8.63;;;4.28;;
81651;SDS011;71061;55.714;37.794;2023-08-21T03:45:25;8.00;;;4.03;;
81651;SDS011;71061;55.714;37.794;2023-08-21T03:47:53;9.00;;;4.20;;
81651;SDS011;71061;55.714;37.794;2023-08-21T03:50:19;8.10;;;3.83;;
81651;SDS011;71061;55.714;37.794;2023-08-21T03:52:45;7.80;;;4.32;;
81651;SDS011;71061;55.714;37.794;2023-08-21T03:55:11;8.73;;;4.15;;
81651;SDS011;71061;55.714;37.794;2023-08-21T03:57:37;7.10;;;3.65;;
81651;SDS011;71061;55.714;37.794;2023-08-21T04:00:04;8.27;;;4.20;;
81651;SDS011;71061;55.714;37.794;2023-08-21T04:02:52;10.20;;;4.15;;
81651;SDS011;71061;55.714;37.794;2023-08-21T04:05:18;7.88;;;4.25;;
81651;SDS011;71061;55.714;37.794;2023-08-21T04:07:43;7.95;;;4.22;;
81651;SDS011;71061;55.714;37.794;2023-08-21T04:10:09;9.25;;;4.38;;
81651;SDS011;71061;55.714;37.794;2023-08-21T04:12:35;5.85;;;2.70;;
81651;SDS011;71061;55.714;37.794;2023-08-21T04:15:00;6.15;;;2.95;;
81651;SDS011;71061;55.714;37.794;2023-08-21T04:17:27;7.05;;;2.92;;
81651;SDS011;71061;55.714;37.794;2023-08-21T04:19:53;7.60;;;2.65;;
81651;SDS011;71061;55.714;37.794;2023-08-21T04:22:18;6.68;;;3.20;;
81651;SDS011;71061;55.714;37.794;2023-08-21T04:24:44;6.28;;;2.65;;
81651;SDS011;71061;55.714;37.794;2023-08-21T04:27:10;7.28;;;2.60;;
81651;SDS011;71061;55.714;37.794;2023-08-21T04:29:35;8.70;;;2.60;;
81651;SDS011;71061;55.714;37.794;2023-08-21T04:32:01;9.93;;;2.80;;
81651;SDS011;71061;55.714;37.794;2023-08-21T04:34:27;6.28;;;3.25;;
81651;SDS011;71061;55.714;37.794;2023-08-21T04:36:53;6.22;;;3.60;;
81651;SDS011;71061;55.714;37.794;2023-08-21T04:39:19;8.73;;;2.85;;
81651;SDS011;71061;55.714;37.794;2023-08-21T04:41:45;6.22;;;2.58;;
81651;SDS011;71061;55.714;37.794;2023-08-21T04:44:11;4.65;;;1.88;;
81651;SDS011;71061;55.714;37.794;2023-08-21T04:46:37;4.65;;;1.98;;
81651;SDS011;71061;55.714;37.794;2023-08-21T04:49:04;4.05;;;1.80;;
81651;SDS011;71061;55.714;37.794;2023-08-21T04:51:29;7.13;;;2.30;;
81651;SDS011;71061;55.714;37.794;2023-08-21T04:53:57;5.53;;;1.90;;
81651;SDS011;71061;55.714;37.794;2023-08-21T04:56:26;5.13;;;2.13;;
81651;SDS011;71061;55.714;37.794;2023-08-21T04:58:52;6.82;;;2.33;;
81651;SDS011;71061;55.714;37.794;2023-08-21T05:01:18;4.80;;;2.20;;
81651;SDS011;71061;55.714;37.794;2023-08-21T05:03:47;5.28;;;2.28;;
81651;SDS011;71061;55.714;37.794;2023-08-21T05:06:13;4.90;;;2.33;;
81651;SDS011;71061;55.714;37.794;2023-08-21T05:08:38;4.50;;;2.05;;
81651;SDS011;71061;55.714;37.794;2023-08-21T05:11:06;6.53;;;2.05;;
81651;SDS011;71061;55.714;37.794;2023-08-21T05:13:35;4.35;;;2.15;;
81651;SDS011;71061;55.714;37.794;2023-08-21T05:16:01;5.63;;;1.63;;
81651;SDS011;71061;55.714;37.794;2023-08-21T05:18:32;5.28;;;2.17;;
81651;SDS011;71061;55.714;37.794;2023-08-21T05:20:57;7.47;;;1.92;;
81651;SDS011;71061;55.714;37.794;2023-08-21T05:23:23;4.38;;;1.75;;
81651;SDS011;71061;55.714;37.794;2023-08-21T05:25:52;5.30;;;1.85;;
81651;SDS011;71061;55.714;37.794;2023-08-21T05:28:17;3.67;;;1.30;;
81651;SDS011;71061;55.714;37.794;2023-08-21T05:30:43;5.50;;;1.45;;
81651;SDS011;71061;55.714;37.794;2023-08-21T05:33:12;4.22;;;1.40;;
81651;SDS011;71061;55.714;37.794;2023-08-21T05:35:37;4.25;;;1.63;;
81651;SDS011;71061;55.714;37.794;2023-08-21T05:38:03;4.07;;;1.50;;
81651;SDS011;71061;55.714;37.794;2023-08-21T05:40:30;5.32;;;1.83;;
81651;SDS011;71061;55.714;37.794;2023-08-21T05:42:57;5.43;;;1.75;;
81651;SDS011;71061;55.714;37.794;2023-08-21T05:45:23;5.25;;;1.10;;
81651;SDS011;71061;55.714;37.794;2023-08-21T05:47:49;4.40;;;1.52;;
81651;SDS011;71061;55.714;37.794;2023-08-21T05:50:14;5.80;;;2.22;;
81651;SDS011;71061;55.714;37.794;2023-08-21T05:52:40;4.13;;;2.08;;
81651;SDS011;71061;55.714;37.794;2023-08-21T05:55:07;5.00;;;1.58;;
81651;SDS011;71061;55.714;37.794;2023-08-21T05:57:33;4.95;;;2.13;;
81651;SDS011;71061;55.714;37.794;2023-08-21T05:59:59;5.35;;;1.60;;
81651;SDS011;71061;55.714;37.794;2023-08-21T06:02:31;5.30;;;1.55;;
81651;SDS011;71061;55.714;37.794;2023-08-21T06:04:58;7.45;;;1.58;;
81651;SDS011;71061;55.714;37.794;2023-08-21T06:07:24;4.53;;;1.98;;
81651;SDS011;71061;55.714;37.794;2023-08-21T06:09:49;3.67;;;1.33;;
81651;SDS011;71061;55.714;37.794;2023-08-21T06:12:15;5.75;;;1.50;;
81651;SDS011;71061;55.714;37.794;2023-08-21T06:14:42;5.50;;;1.75;;
81651;SDS011;71061;55.714;37.794;2023-08-21T06:17:08;5.20;;;1.45;;
81651;SDS011;71061;55.714;37.794;2023-08-21T06:19:34;4.85;;;1.85;;
81651;SDS011;71061;55.714;37.794;2023-08-21T06:22:00;4.00;;;1.20;;
81651;SDS011;71061;55.714;37.794;2023-08-21T06:24:26;3.80;;;1.30;;
81651;SDS011;71061;55.714;37.794;2023-08-21T06:26:56;6.97;;;1.90;;
81651;SDS011;71061;55.714;37.794;2023-08-21T06:29:22;4.30;;;1.52;;
81651;SDS011;71061;55.714;37.794;2023-08-21T06:31:48;4.20;;;1.20;;
81651;SDS011;71061;55.714;37.794;2023-08-21T06:34:14;4.45;;;1.88;;
81651;SDS011;71061;55.714;37.794;2023-08-21T06:36:40;3.92;;;1.23;;
81651;SDS011;71061;55.714;37.794;2023-08-21T06:39:06;5.65;;;1.50;;
81651;SDS011;71061;55.714;37.794;2023-08-21T06:41:31;4.22;;;1.42;;
81651;SDS011;71061;55.714;37.794;2023-08-21T06:43:57;3.40;;;1.35;;
81651;SDS011;71061;55.714;37.794;2023-08-21T06:46:23;5.15;;;1.13;;
81651;SDS011;71061;55.714;37.794;2023-08-21T06:48:49;6.38;;;1.30;;
81651;SDS011;71061;55.714;37.794;2023-08-21T06:51:15;4.47;;;1.00;;
81651;SDS011;71061;55.714;37.794;2023-08-21T06:53:41;4.72;;;1.65;;
81651;SDS011;71061;55.714;37.794;2023-08-21T06:56:07;3.30;;;1.35;;
81651;SDS011;71061;55.714;37.794;2023-08-21T06:58:33;6.00;;;1.30;;
81651;SDS011;71061;55.714;37.794;2023-08-21T07:00:59;3.28;;;1.35;;
81651;SDS011;71061;55.714;37.794;2023-08-21T07:03:25;4.80;;;1.60;;
81651;SDS011;71061;55.714;37.794;2023-08-21T07:05:59;4.65;;;1.30;;
81651;SDS011;71061;55.714;37.794;2023-08-21T07:08:25;3.95;;;0.98;;
81651;SDS011;71061;55.714;37.794;2023-08-21T07:10:52;3.50;;;1.58;;
81651;SDS011;71061;55.714;37.794;2023-08-21T07:13:18;5.45;;;2.13;;
81651;SDS011;71061;55.714;37.794;2023-08-21T07:15:45;3.72;;;1.38;;
81651;SDS011;71061;55.714;37.794;2023-08-21T07:18:11;4.95;;;1.92;;
81651;SDS011;71061;55.714;37.794;2023-08-21T07:20:37;4.95;;;1.30;;
81651;SDS011;71061;55.714;37.794;2023-08-21T07:23:03;5.97;;;1.58;;
81651;SDS011;71061;55.714;37.794;2023-08-21T07:25:29;4.38;;;1.30;;
81651;SDS011;71061;55.714;37.794;2023-08-21T07:27:56;4.05;;;1.60;;
81651;SDS011;71061;55.714;37.794;2023-08-21T07:30:21;4.38;;;1.48;;
81651;SDS011;71061;55.714;37.794;2023-08-21T07:32:47;4.57;;;1.02;;
81651;SDS011;71061;55.714;37.794;2023-08-21T07:35:14;3.20;;;0.95;;
81651;SDS011;71061;55.714;37.794;2023-08-21T07:37:39;4.28;;;2.03;;
81651;SDS011;71061;55.714;37.794;2023-08-21T07:40:09;4.35;;;1.35;;
81651;SDS011;71061;55.714;37.794;2023-08-21T07:42:35;10.05;;;5.53;;
81651;SDS011;71061;55.714;37.794;2023-08-21T07:45:00;4.57;;;1.40;;
81651;SDS011;71061;55.714;37.794;2023-08-21T07:47:29;4.38;;;1.20;;
81651;SDS011;71061;55.714;37.794;2023-08-21T07:49:55;2.50;;;1.10;;
81651;SDS011;71061;55.714;37.794;2023-08-21T07:52:21;3.55;;;1.40;;
81651;SDS011;71061;55.714;37.794;2023-08-21T07:54:51;3.17;;;1.10;;
81651;SDS011;71061;55.714;37.794;2023-08-21T07:57:17;4.45;;;1.00;;
81651;SDS011;71061;55.714;37.794;2023-08-21T07:59:44;4.15;;;1.35;;
81651;SDS011;71061;55.714;37.794;2023-08-21T08:02:09;4.15;;;1.30;;
81651;SDS011;71061;55.714;37.794;2023-08-21T08:04:38;3.45;;;1.10;;
81651;SDS011;71061;55.714;37.794;2023-08-21T08:07:04;4.55;;;0.90;;
81651;SDS011;71061;55.714;37.794;2023-08-21T08:09:30;5.53;;;1.17;;
81651;SDS011;71061;55.714;37.794;2023-08-21T08:11:56;4.22;;;0.90;;
81651;SDS011;71061;55.714;37.794;2023-08-21T08:14:21;4.63;;;1.35;;
81651;SDS011;71061;55.714;37.794;2023-08-21T08:16:47;4.57;;;1.08;;
81651;SDS011;71061;55.714;37.794;2023-08-21T08:19:13;3.28;;;1.00;;
81651;SDS011;71061;55.714;37.794;2023-08-21T08:21:39;4.10;;;1.17;;
81651;SDS011;71061;55.714;37.794;2023-08-21T08:24:04;7.47;;;1.52;;
81651;SDS011;71061;55.714;37.794;2023-08-21T08:26:30;6.53;;;1.10;;
81651;SDS011;71061;55.714;37.794;2023-08-21T08:28:56;6.60;;;1.40;;
81651;SDS011;71061;55.714;37.794;2023-08-21T08:31:22;3.78;;;1.00;;
81651;SDS011;71061;55.714;37.794;2023-08-21T08:33:49;3.60;;;1.02;;
81651;SDS011;71061;55.714;37.794;2023-08-21T08:36:14;3.60;;;0.80;;
81651;SDS011;71061;55.714;37.794;2023-08-21T08:38:40;3.13;;;1.02;;
81651;SDS011;71061;55.714;37.794;2023-08-21T08:41:07;3.97;;;1.20;;
81651;SDS011;71061;55.714;37.794;2023-08-21T08:43:39;3.97;;;0.93;;
81651;SDS011;71061;55.714;37.794;2023-08-21T08:46:07;3.00;;;1.23;;
81651;SDS011;71061;55.714;37.794;2023-08-21T08:48:34;4.43;;;1.33;;
81651;SDS011;71061;55.714;37.794;2023-08-21T08:51:01;3.60;;;1.23;;
81651;SDS011;71061;55.714;37.794;2023-08-21T08:53:29;4.15;;;1.25;;
81651;SDS011;71061;55.714;37.794;2023-08-21T08:55:55;4.65;;;1.75;;
81651;SDS011;71061;55.714;37.794;2023-08-21T08:58:22;3.53;;;1.63;;
81651;SDS011;71061;55.714;37.794;2023-08-21T09:00:48;3.40;;;1.45;;
81651;SDS011;71061;55.714;37.794;2023-08-21T09:03:13;3.15;;;1.00;;
81651;SDS011;71061;55.714;37.794;2023-08-21T09:05:41;3.75;;;1.42;;
81651;SDS011;71061;55.714;37.794;2023-08-21T09:10:43;3.50;;;1.30;;
81651;SDS011;71061;55.714;37.794;2023-08-21T09:13:12;4.10;;;1.52;;
81651;SDS011;71061;55.714;37.794;2023-08-21T09:15:45;5.95;;;1.30;;
81651;SDS011;71061;55.714;37.794;2023-08-21T09:18:13;37.50;;;5.53;;
81651;SDS011;71061;55.714;37.794;2023-08-21T09:20:40;12.85;;;2.15;;
81651;SDS011;71061;55.714;37.794;2023-08-21T09:23:06;5.45;;;1.50;;
81651;SDS011;71061;55.714;37.794;2023-08-21T09:25:34;38.85;;;4.65;;
81651;SDS011;71061;55.714;37.794;2023-08-21T09:28:04;4.47;;;1.42;;
81651;SDS011;71061;55.714;37.794;2023-08-21T09:30:42;4.90;;;1.20;;
81651;SDS011;71061;55.714;37.794;2023-08-21T09:33:12;4.40;;;1.35;;
81651;SDS011;71061;55.714;37.794;2023-08-21T09:35:38;4.22;;;1.73;;
81651;SDS011;71061;55.714;37.794;2023-08-21T09:38:07;5.38;;;1.17;;
81651;SDS011;71061;55.714;37.794;2023-08-21T09:40:33;2.88;;;1.10;;
81651;SDS011;71061;55.714;37.794;2023-08-21T09:42:59;32.83;;;3.80;;
81651;SDS011;71061;55.714;37.794;2023-08-21T09:45:25;6.57;;;1.55;;
81651;SDS011;71061;55.714;37.794;2023-08-21T09:47:54;6.93;;;1.80;;
81651;SDS011;71061;55.714;37.794;2023-08-21T09:50:20;2.63;;;1.10;;
81651;SDS011;71061;55.714;37.794;2023-08-21T09:52:47;110.30;;;9.77;;
81651;SDS011;71061;55.714;37.794;2023-08-21T09:55:14;14.05;;;1.75;;
81651;SDS011;71061;55.714;37.794;2023-08-21T09:57:41;3.95;;;1.10;;
81651;SDS011;71061;55.714;37.794;2023-08-21T10:00:07;3.63;;;1.33;;
81651;SDS011;71061;55.714;37.794;2023-08-21T10:02:52;4.25;;;1.88;;
81651;SDS011;71061;55.714;37.794;2023-08-21T10:05:19;7.53;;;2.17;;
81651;SDS011;71061;55.714;37.794;2023-08-21T10:07:46;3.05;;;1.35;;
81651;SDS011;71061;55.714;37.794;2023-08-21T10:10:13;3.47;;;2.13;;
81651;SDS011;71061;55.714;37.794;2023-08-21T10:12:39;4.32;;;1.73;;
81651;SDS011;71061;55.714;37.794;2023-08-21T10:15:06;17.45;;;2.70;;
81651;SDS011;71061;55.714;37.794;2023-08-21T10:17:32;5.75;;;2.00;;
81651;SDS011;71061;55.714;37.794;2023-08-21T10:20:06;5.78;;;2.03;;
81651;SDS011;71061;55.714;37.794;2023-08-21T10:22:48;5.15;;;2.08;;
81651;SDS011;71061;55.714;37.794;2023-08-21T10:25:16;3.95;;;1.30;;
81651;SDS011;71061;55.714;37.794;2023-08-21T10:27:46;3.83;;;1.83;;
81651;SDS011;71061;55.714;37.794;2023-08-21T10:30:13;8.05;;;1.75;;
81651;SDS011;71061;55.714;37.794;2023-08-21T10:32:45;5.90;;;2.03;;
81651;SDS011;71061;55.714;37.794;2023-08-21T10:35:16;3.00;;;1.75;;
81651;SDS011;71061;55.714;37.794;2023-08-21T10:40:39;4.00;;;1.73;;
81651;SDS011;71061;55.714;37.794;2023-08-21T10:46:10;3.47;;;1.70;;
81651;SDS011;71061;55.714;37.794;2023-08-21T10:48:36;7.80;;;1.35;;
81651;SDS011;71061;55.714;37.794;2023-08-21T10:51:03;5.70;;;1.40;;
81651;SDS011;71061;55.714;37.794;2023-08-21T10:53:30;8.82;;;1.67;;
81651;SDS011;71061;55.714;37.794;2023-08-21T10:55:57;10.15;;;2.05;;
81651;SDS011;71061;55.714;37.794;2023-08-21T10:58:23;3.90;;;1.65;;
81651;SDS011;71061;55.714;37.794;2023-08-21T11:00:57;3.15;;;1.42;;
81651;SDS011;71061;55.714;37.794;2023-08-21T11:03:23;4.70;;;1.98;;
81651;SDS011;71061;55.714;37.794;2023-08-21T11:06:06;3.85;;;1.73;;
81651;SDS011;71061;55.714;37.794;2023-08-21T11:08:33;2.97;;;0.90;;
81651;SDS011;71061;55.714;37.794;2023-08-21T11:11:00;3.30;;;1.92;;
81651;SDS011;71061;55.714;37.794;2023-08-21T11:13:27;10.15;;;2.47;;
81651;SDS011;71061;55.714;37.794;2023-08-21T11:16:08;5.30;;;1.88;;
81651;SDS011;71061;55.714;37.794;2023-08-21T11:18:36;4.82;;;1.73;;
81651;SDS011;71061;55.714;37.794;2023-08-21T11:21:04;6.32;;;2.08;;
81651;SDS011;71061;55.714;37.794;2023-08-21T11:23:32;5.30;;;2.88;;
81651;SDS011;71061;55.714;37.794;2023-08-21T11:26:00;3.97;;;1.58;;
81651;SDS011;71061;55.714;37.794;2023-08-21T11:28:27;5.13;;;2.35;;
81651;SDS011;71061;55.714;37.794;2023-08-21T11:30:54;3.67;;;2.42;;
81651;SDS011;71061;55.714;37.794;2023-08-21T11:33:20;4.25;;;1.60;;
81651;SDS011;71061;55.714;37.794;2023-08-21T11:35:46;3.92;;;1.88;;
81651;SDS011;71061;55.714;37.794;2023-08-21T11:38:14;5.03;;;1.83;;
81651;SDS011;71061;55.714;37.794;2023-08-21T11:46:13;4.80;;;1.75;;
81651;SDS011;71061;55.714;37.794;2023-08-21T11:48:39;3.53;;;1.00;;
81651;SDS011;71061;55.714;37.794;2023-08-21T11:51:07;4.45;;;1.60;;
81651;SDS011;71061;55.714;37.794;2023-08-21T11:53:34;4.43;;;1.70;;
81651;SDS011;71061;55.714;37.794;2023-08-21T11:56:02;4.53;;;2.05;;
81651;SDS011;71061;55.714;37.794;2023-08-21T11:58:44;4.63;;;2.22;;
81651;SDS011;71061;55.714;37.794;2023-08-21T12:01:17;5.68;;;1.92;;
81651;SDS011;71061;55.714;37.794;2023-08-21T12:03:43;4.55;;;2.10;;
81651;SDS011;71061;55.714;37.794;2023-08-21T12:06:10;5.13;;;2.15;;
81651;SDS011;71061;55.714;37.794;2023-08-21T12:08:37;5.68;;;2.05;;
81651;SDS011;71061;55.714;37.794;2023-08-21T12:11:03;3.97;;;1.92;;
81651;SDS011;71061;55.714;37.794;2023-08-21T12:13:30;3.63;;;1.42;;
81651;SDS011;71061;55.714;37.794;2023-08-21T12:15:55;8.48;;;2.45;;
81651;SDS011;71061;55.714;37.794;2023-08-21T12:18:21;15.85;;;2.85;;
81651;SDS011;71061;55.714;37.794;2023-08-21T12:20:47;8.13;;;2.53;;
81651;SDS011;71061;55.714;37.794;2023-08-21T12:23:12;4.55;;;1.65;;
81651;SDS011;71061;55.714;37.794;2023-08-21T12:25:38;3.60;;;1.17;;
81651;SDS011;71061;55.714;37.794;2023-08-21T12:28:05;4.05;;;1.90;;
81651;SDS011;71061;55.714;37.794;2023-08-21T12:30:31;3.53;;;1.05;;
81651;SDS011;71061;55.714;37.794;2023-08-21T12:32:57;3.72;;;1.33;;
81651;SDS011;71061;55.714;37.794;2023-08-21T12:35:23;4.20;;;0.93;;
81651;SDS011;71061;55.714;37.794;2023-08-21T12:37:48;7.55;;;2.35;;
81651;SDS011;71061;55.714;37.794;2023-08-21T12:40:14;4.93;;;1.40;;
81651;SDS011;71061;55.714;37.794;2023-08-21T12:42:40;5.22;;;2.20;;
81651;SDS011;71061;55.714;37.794;2023-08-21T12:45:05;4.15;;;2.13;;
81651;SDS011;71061;55.714;37.794;2023-08-21T12:47:32;5.35;;;2.20;;
81651;SDS011;71061;55.714;37.794;2023-08-21T12:49:58;6.55;;;1.98;;
81651;SDS011;71061;55.714;37.794;2023-08-21T12:52:24;3.67;;;1.85;;
81651;SDS011;71061;55.714;37.794;2023-08-21T12:54:49;6.55;;;1.75;;
81651;SDS011;71061;55.714;37.794;2023-08-21T12:57:15;9.70;;;2.08;;
81651;SDS011;71061;55.714;37.794;2023-08-21T12:59:42;4.38;;;2.45;;
81651;SDS011;71061;55.714;37.794;2023-08-21T13:02:07;3.05;;;1.48;;
81651;SDS011;71061;55.714;37.794;2023-08-21T13:04:33;5.97;;;2.15;;
81651;SDS011;71061;55.714;37.794;2023-08-21T13:06:59;3.67;;;1.33;;
81651;SDS011;71061;55.714;37.794;2023-08-21T13:09:25;3.45;;;1.80;;
81651;SDS011;71061;55.714;37.794;2023-08-21T13:11:51;3.88;;;1.80;;
81651;SDS011;71061;55.714;37.794;2023-08-21T13:14:17;4.13;;;2.22;;
81651;SDS011;71061;55.714;37.794;2023-08-21T13:16:42;53.75;;;4.75;;
81651;SDS011;71061;55.714;37.794;2023-08-21T13:19:08;3.88;;;1.60;;
81651;SDS011;71061;55.714;37.794;2023-08-21T13:21:34;4.32;;;1.15;;
81651;SDS011;71061;55.714;37.794;2023-08-21T13:23:59;4.88;;;1.50;;
81651;SDS011;71061;55.714;37.794;2023-08-21T13:26:25;5.18;;;2.17;;
81651;SDS011;71061;55.714;37.794;2023-08-21T13:28:54;4.78;;;2.05;;
81651;SDS011;71061;55.714;37.794;2023-08-21T13:31:20;4.50;;;1.98;;
81651;SDS011;71061;55.714;37.794;2023-08-21T13:33:46;4.75;;;1.83;;
81651;SDS011;71061;55.714;37.794;2023-08-21T13:36:13;3.85;;;1.02;;
81651;SDS011;71061;55.714;37.794;2023-08-21T13:38:39;4.85;;;1.65;;
81651;SDS011;71061;55.714;37.794;2023-08-21T13:41:06;3.75;;;2.33;;
81651;SDS011;71061;55.714;37.794;2023-08-21T13:43:32;5.18;;;2.47;;
81651;SDS011;71061;55.714;37.794;2023-08-21T13:45:59;5.25;;;0.90;;
81651;SDS011;71061;55.714;37.794;2023-08-21T13:48:25;3.85;;;1.95;;
81651;SDS011;71061;55.714;37.794;2023-08-21T13:50:51;26.40;;;3.30;;
81651;SDS011;71061;55.714;37.794;2023-08-21T13:53:17;5.40;;;1.67;;
81651;SDS011;71061;55.714;37.794;2023-08-21T13:55:42;4.13;;;2.45;;
81651;SDS011;71061;55.714;37.794;2023-08-21T13:58:08;7.82;;;1.33;;
81651;SDS011;71061;55.714;37.794;2023-08-21T14:00:34;4.97;;;1.70;;
81651;SDS011;71061;55.714;37.794;2023-08-21T14:03:00;4.03;;;1.55;;
81651;SDS011;71061;55.714;37.794;2023-08-21T14:05:25;3.13;;;1.13;;
81651;SDS011;71061;55.714;37.794;2023-08-21T14:07:52;4.03;;;1.80;;
81651;SDS011;71061;55.714;37.794;2023-08-21T14:10:18;4.60;;;1.55;;
81651;SDS011;71061;55.714;37.794;2023-08-21T14:12:45;4.20;;;1.85;;
81651;SDS011;71061;55.714;37.794;2023-08-21T14:15:11;3.40;;;1.38;;
81651;SDS011;71061;55.714;37.794;2023-08-21T14:17:37;21.75;;;2.22;;
81651;SDS011;71061;55.714;37.794;2023-08-21T14:20:03;6.75;;;2.28;;
81651;SDS011;71061;55.714;37.794;2023-08-21T14:22:30;3.78;;;2.03;;
81651;SDS011;71061;55.714;37.794;2023-08-21T14:24:57;3.30;;;2.15;;
81651;SDS011;71061;55.714;37.794;2023-08-21T14:27:22;7.82;;;1.30;;
81651;SDS011;71061;55.714;37.794;2023-08-21T14:29:48;6.75;;;1.20;;
81651;SDS011;71061;55.714;37.794;2023-08-21T14:32:14;19.83;;;3.55;;
81651;SDS011;71061;55.714;37.794;2023-08-21T14:34:40;3.67;;;1.65;;
81651;SDS011;71061;55.714;37.794;2023-08-21T14:37:06;13.43;;;1.98;;
81651;SDS011;71061;55.714;37.794;2023-08-21T14:39:32;4.68;;;1.83;;
81651;SDS011;71061;55.714;37.794;2023-08-21T14:41:58;4.55;;;2.42;;
81651;SDS011;71061;55.714;37.794;2023-08-21T14:44:24;3.80;;;1.48;;
81651;SDS011;71061;55.714;37.794;2023-08-21T14:46:52;6.38;;;1.67;;
81651;SDS011;71061;55.714;37.794;2023-08-21T14:49:18;3.45;;;1.42;;
81651;SDS011;71061;55.714;37.794;2023-08-21T14:51:44;4.65;;;1.67;;
81651;SDS011;71061;55.714;37.794;2023-08-21T14:54:09;5.32;;;1.92;;